Detall de PIREP

Printer-friendly versionPDF version

[2017/06/10 14:59:00]
Flight IATA:CT1063
Pilot Number:012
Company ICAO:CAT
Aircraft Type:DC85/A
PAX:132
Aircraft Registration:PAX
Departing Airport: LTBA
Destination Airport: LGAV
Alternate Airport:LGBL
Online: VATSIM
Route:MARMA UY255 BIG UN604 KEPIR
Flight Level:F320
No Slew and time accel
No pause
Crash detect
Detect pilot in Cockpit between each 30 and 45 minutes
14:59 Zero fuel Weight: 179239 Lbs, Fuel Weight: 59420 Lbs
14:59 VATSIM:LTBA 101420Z 22008KT 190V250 9999 BKN035 20/16 Q1016 BECMG TL1500 35012KT
14:59 VATSIM:LGAV 101420Z 09008KT 9999 FEW030 25/14 Q1015 NOSIG
14:59 ALMOGAVERS ROUTE
15:05 Parking Brakes off
15:10 Take-off
15:10 Take off Weight: 237587 Lbs
15:10 Wind: 225º @ 008 Knots Heading: 180º
15:10 POS N40º 58´ 45´´ E028º 48´ 32´´
15:10 Gear Up: 165 Knots
15:10 Flaps:2 at 165 Knots
15:10 Flaps:1 at 209 Knots
15:10 Flaps:0 at 221 Knots
15:21 TOC
15:21 Fuel Weight: 54077 Lb
15:25 Wind:282º@024 Knots Heading: 221º Ground Speed: 471 Knots Altitude 32050 ft
15:40 Wind:270º@034 Knots Heading: 239º Ground Speed: 474 Knots Altitude 32024 ft
15:41 TOD
15:41 Fuel Weight: 49152 Lb
15:55 Wind:293º@005 Knots Heading: 206º Ground Speed: 268 Knots Altitude 4783 ft
16:02 Flaps:1 at 220 Knots
16:05 Flaps:2 at 212 Knots
16:05 Flaps:3 at 211 Knots
16:06 Gear Down: 209 Knots
16:06 Flaps:4 at 182 Knots
16:07 Flaps:5 at 177 Knots
16:10 Wind:086º@008 Knots Heading: 038º Ground Speed: 151 Knots Altitude 544 ft
16:10 TouchDown:Rate -424 ft/min Speed: 133 Knots
16:10 VATSIM:LGAV 101550Z 09008KT 060V120 9999 FEW030 24/12 Q1015 NOSIG
16:10 Land
16:10 Wind:086º@008 Knots
16:10 Heading: 033º
16:10 Flight Duration: 01:00
16:10 Landing Weight: 224872 Lbs
16:10 POS N37º 56´ 12´´ E023º 57´ 22´´
16:13 Parking brakes on
16:13 Block to Block Duration: 01:08
16:13 Final Fuel: 45286 Lbls
16:13 Spent Fuel: 14133 Lbls
16:13 Flight Length: 361 NM
16:13 TOD Land Length: 143 NM

Exportar CSV

Powered by Drupal - Modified by Danger4k